createdAt,value
2018-03-11T00:00:55.347Z,5.60
2018-03-11T00:03:22.925Z,5.60
2018-03-11T00:05:50.529Z,5.60
2018-03-11T00:08:18.108Z,5.70
2018-03-11T00:10:45.702Z,5.60
2018-03-11T00:13:13.359Z,5.50
2018-03-11T00:15:40.982Z,5.50
2018-03-11T00:18:08.610Z,5.50
2018-03-11T00:20:36.222Z,5.60
2018-03-11T00:23:03.770Z,5.70
2018-03-11T00:25:31.383Z,5.70
2018-03-11T00:27:59.061Z,5.70
2018-03-11T00:30:26.678Z,5.80
2018-03-11T00:32:54.274Z,5.80
2018-03-11T00:35:21.837Z,5.90
2018-03-11T00:37:49.388Z,5.90
2018-03-11T00:40:16.966Z,5.90
2018-03-11T00:42:44.518Z,5.90
2018-03-11T00:45:12.506Z,6.00
2018-03-11T00:47:40.100Z,6.00
2018-03-11T00:50:08.095Z,6.10
2018-03-11T00:52:35.667Z,6.10
2018-03-11T00:55:03.294Z,6.10
2018-03-11T00:57:31.232Z,6.10
2018-03-11T00:59:58.864Z,6.10
2018-03-11T01:02:26.406Z,6.10
2018-03-11T01:04:53.992Z,6.10
2018-03-11T01:07:21.534Z,6.10
2018-03-11T01:09:49.132Z,6.10
2018-03-11T01:12:16.792Z,6.20
2018-03-11T01:14:44.359Z,6.30
2018-03-11T01:17:11.999Z,6.30
2018-03-11T01:19:39.557Z,6.30
2018-03-11T01:22:07.178Z,6.30
2018-03-11T01:24:34.766Z,6.30
2018-03-11T01:27:02.407Z,6.30
2018-03-11T01:29:29.953Z,6.30
2018-03-11T01:31:57.599Z,6.30
2018-03-11T01:34:25.204Z,6.30
2018-03-11T01:36:52.808Z,6.20
2018-03-11T01:39:20.379Z,6.30
2018-03-11T01:41:47.983Z,6.30
2018-03-11T01:44:15.538Z,6.30
2018-03-11T01:46:43.144Z,6.30
2018-03-11T01:49:10.770Z,6.30
2018-03-11T01:51:38.350Z,6.40
2018-03-11T01:54:05.923Z,6.40
2018-03-11T01:56:33.517Z,6.40
2018-03-11T01:59:01.145Z,6.40
2018-03-11T02:01:28.745Z,6.40
2018-03-11T02:03:56.330Z,6.40
2018-03-11T02:06:23.946Z,6.40
2018-03-11T02:08:51.535Z,6.40
2018-03-11T02:11:19.135Z,6.40
2018-03-11T02:13:47.074Z,6.60
2018-03-11T02:16:14.649Z,6.60
2018-03-11T02:18:42.250Z,6.60
2018-03-11T02:21:17.235Z,6.60
2018-03-11T02:23:44.843Z,6.60
2018-03-11T02:26:12.403Z,6.60
2018-03-11T02:28:40.037Z,6.70
2018-03-11T02:31:07.578Z,6.70
2018-03-11T02:33:35.199Z,6.70
2018-03-11T02:36:02.780Z,6.70
2018-03-11T02:38:30.365Z,6.70
2018-03-11T02:40:58.378Z,6.80
2018-03-11T02:43:26.002Z,6.80
2018-03-11T02:45:53.614Z,6.90
2018-03-11T02:48:21.220Z,6.80
2018-03-11T02:50:48.779Z,6.90
2018-03-11T02:53:16.383Z,6.90
2018-03-11T02:55:43.981Z,6.90
2018-03-11T02:58:11.611Z,6.90
2018-03-11T03:00:39.163Z,6.90
2018-03-11T03:03:06.787Z,6.90
2018-03-11T03:05:34.446Z,6.90
2018-03-11T03:08:02.060Z,6.90
2018-03-11T03:10:29.661Z,7.00
2018-03-11T03:12:57.291Z,6.90
2018-03-11T03:15:24.879Z,6.90
2018-03-11T03:17:52.489Z,6.90
2018-03-11T03:20:20.041Z,6.90
2018-03-11T03:22:47.691Z,6.90
2018-03-11T03:25:15.321Z,6.90
2018-03-11T03:27:42.902Z,7.00
2018-03-11T03:30:10.491Z,7.00
2018-03-11T03:32:38.136Z,7.00
2018-03-11T03:35:05.743Z,7.00
2018-03-11T03:37:33.302Z,7.00
2018-03-11T03:40:01.409Z,7.10
2018-03-11T03:42:29.027Z,7.10
2018-03-11T03:44:57.016Z,7.20
2018-03-11T03:47:24.598Z,7.20
2018-03-11T03:49:52.198Z,7.30
2018-03-11T03:52:19.730Z,7.20
2018-03-11T03:54:47.311Z,7.30
2018-03-11T03:57:14.976Z,7.30
2018-03-11T03:59:42.612Z,7.40
2018-03-11T04:02:10.209Z,7.40
2018-03-11T04:04:37.791Z,7.40
2018-03-11T04:07:05.399Z,7.50
2018-03-11T04:09:33.008Z,7.50
2018-03-11T04:12:00.611Z,7.50
2018-03-11T04:14:28.219Z,7.60
2018-03-11T04:16:55.855Z,7.50
2018-03-11T04:19:23.463Z,7.50
2018-03-11T04:21:51.048Z,7.50
2018-03-11T04:24:18.643Z,7.50
2018-03-11T04:26:46.234Z,7.50
2018-03-11T04:29:13.812Z,7.40
2018-03-11T04:31:41.445Z,7.40
2018-03-11T04:34:09.050Z,7.30
2018-03-11T04:36:36.621Z,7.30
2018-03-11T04:39:04.262Z,7.30
2018-03-11T04:41:31.883Z,7.30
2018-03-11T04:43:59.533Z,7.20
2018-03-11T04:46:27.123Z,7.20
2018-03-11T04:48:54.705Z,7.20
2018-03-11T04:51:22.309Z,7.20
2018-03-11T04:53:49.869Z,7.30
2018-03-11T04:56:17.459Z,7.40
2018-03-11T04:58:45.044Z,7.40
2018-03-11T05:01:12.643Z,7.30
2018-03-11T05:03:40.220Z,7.30
2018-03-11T05:06:07.825Z,7.30
2018-03-11T05:08:35.442Z,7.30
2018-03-11T05:11:03.070Z,7.30
2018-03-11T05:13:30.657Z,7.30
2018-03-11T05:15:58.247Z,7.30
2018-03-11T05:18:25.855Z,7.40
2018-03-11T05:20:53.434Z,7.30
2018-03-11T05:23:21.020Z,7.20
2018-03-11T05:25:48.635Z,7.20
2018-03-11T05:28:16.254Z,7.20
2018-03-11T05:30:43.855Z,7.10
2018-03-11T05:33:11.413Z,7.00
2018-03-11T05:35:38.991Z,7.00
2018-03-11T05:38:06.552Z,6.90
2018-03-11T05:40:34.170Z,6.90
2018-03-11T05:43:01.743Z,6.80
2018-03-11T05:45:29.334Z,6.80
2018-03-11T05:47:56.876Z,6.70
2018-03-11T05:50:24.469Z,6.70
2018-03-11T05:52:52.089Z,6.70
2018-03-11T05:55:19.665Z,6.70
2018-03-11T05:57:47.241Z,6.70
2018-03-11T06:00:14.878Z,6.50
2018-03-11T06:02:42.458Z,6.40
2018-03-11T06:05:10.012Z,6.30
2018-03-11T06:07:37.582Z,6.30
2018-03-11T06:10:05.143Z,6.30
2018-03-11T06:12:32.769Z,6.40
2018-03-11T06:15:00.395Z,6.40
2018-03-11T06:17:28.027Z,6.50
2018-03-11T06:19:55.601Z,6.60
2018-03-11T06:22:23.167Z,6.60
2018-03-11T06:24:50.772Z,6.70
2018-03-11T06:27:18.388Z,6.90
2018-03-11T06:29:46.031Z,7.00
2018-03-11T06:32:13.627Z,7.20
2018-03-11T06:34:41.263Z,7.40
2018-03-11T06:37:08.861Z,7.50
2018-03-11T06:39:36.420Z,7.60
2018-03-11T06:42:04.029Z,7.70
2018-03-11T06:44:32.010Z,7.90
2018-03-11T06:46:59.609Z,7.90
2018-03-11T06:49:27.166Z,8.00
2018-03-11T06:51:54.757Z,8.00
2018-03-11T06:54:22.393Z,8.20
2018-03-11T06:56:49.990Z,8.30
2018-03-11T06:59:17.561Z,8.40
2018-03-11T07:01:45.158Z,8.50
2018-03-11T07:04:12.778Z,8.60
2018-03-11T07:06:40.719Z,8.80
2018-03-11T07:09:08.368Z,8.80
2018-03-11T07:11:36.124Z,8.90
2018-03-11T07:14:03.711Z,9.10
2018-03-11T07:16:32.279Z,9.10
2018-03-11T07:18:59.918Z,9.20
2018-03-11T07:21:27.525Z,9.20
2018-03-11T07:23:55.119Z,9.20
2018-03-11T07:26:22.698Z,9.20
2018-03-11T07:28:50.511Z,9.20
2018-03-11T07:31:18.100Z,9.20
2018-03-11T07:33:45.664Z,9.10
2018-03-11T07:36:13.252Z,9.10
2018-03-11T07:38:40.844Z,9.00
2018-03-11T07:41:08.421Z,9.10
2018-03-11T07:43:36.066Z,9.30
2018-03-11T07:46:04.068Z,9.50
2018-03-11T07:48:31.691Z,9.50
2018-03-11T07:50:59.342Z,9.60
2018-03-11T07:53:26.929Z,9.80
2018-03-11T07:55:54.563Z,10.10
2018-03-11T07:58:22.974Z,10.40
2018-03-11T08:00:50.555Z,10.70
2018-03-11T08:03:18.138Z,10.90
2018-03-11T08:05:45.835Z,10.90
2018-03-11T08:08:13.421Z,10.80
2018-03-11T08:10:43.062Z,10.70
2018-03-11T08:13:10.716Z,10.50
2018-03-11T08:15:38.519Z,10.40
2018-03-11T08:18:06.103Z,10.60
2018-03-11T08:20:33.742Z,10.80
2018-03-11T08:23:01.360Z,10.80
2018-03-11T08:25:29.287Z,10.90
2018-03-11T08:27:56.977Z,10.90
2018-03-11T08:30:24.675Z,10.90
2018-03-11T08:32:52.674Z,11.00
2018-03-11T08:35:20.288Z,11.00
2018-03-11T08:37:47.882Z,11.00
2018-03-11T08:40:15.495Z,11.00
2018-03-11T08:42:43.096Z,11.10
2018-03-11T08:45:10.729Z,11.10
2018-03-11T08:47:38.368Z,11.10
2018-03-11T08:50:06.010Z,11.20
2018-03-11T08:52:33.617Z,11.20
2018-03-11T08:55:01.654Z,11.30
2018-03-11T08:57:29.239Z,11.30
2018-03-11T08:59:57.231Z,11.40
2018-03-11T09:02:24.783Z,11.40
2018-03-11T09:04:52.399Z,11.50
2018-03-11T09:07:20.020Z,11.80
2018-03-11T09:09:47.605Z,12.00
2018-03-11T09:12:15.200Z,12.20
2018-03-11T09:14:42.802Z,12.20
2018-03-11T09:17:10.443Z,12.30
2018-03-11T09:19:38.011Z,12.30
2018-03-11T09:22:05.643Z,12.30
2018-03-11T09:24:33.590Z,12.20
2018-03-11T09:27:01.236Z,12.20
2018-03-11T09:29:28.808Z,12.10
2018-03-11T09:31:56.395Z,12.00
2018-03-11T09:34:23.997Z,12.00
2018-03-11T09:36:51.572Z,12.00
2018-03-11T09:39:19.354Z,12.10
2018-03-11T09:41:47.343Z,12.10
2018-03-11T09:44:14.930Z,12.20
2018-03-11T09:46:42.793Z,12.30
2018-03-11T09:49:11.146Z,12.40
2018-03-11T09:51:38.871Z,12.50
2018-03-11T09:54:06.499Z,12.60
2018-03-11T09:56:34.182Z,13.00
2018-03-11T09:59:01.795Z,13.30
2018-03-11T10:01:29.417Z,13.50
2018-03-11T10:03:57.000Z,13.60
2018-03-11T10:06:24.632Z,13.80
2018-03-11T10:08:52.271Z,13.90
2018-03-11T10:11:19.864Z,14.10
2018-03-11T10:13:47.475Z,14.30
2018-03-11T10:16:15.118Z,14.30
2018-03-11T10:18:42.702Z,14.10
2018-03-11T10:21:10.313Z,14.20
2018-03-11T10:23:37.943Z,14.20
2018-03-11T10:26:05.542Z,14.20
2018-03-11T10:28:33.115Z,14.30
2018-03-11T10:31:00.715Z,14.40
2018-03-11T10:33:28.331Z,14.50
2018-03-11T10:35:55.981Z,14.50
2018-03-11T10:38:23.578Z,14.40
2018-03-11T10:40:51.167Z,14.40
2018-03-11T10:43:18.772Z,14.40
2018-03-11T10:45:46.533Z,14.30
2018-03-11T10:48:14.172Z,14.30
2018-03-11T10:50:41.763Z,14.30
2018-03-11T10:53:09.360Z,14.40
2018-03-11T10:55:37.058Z,14.50
2018-03-11T10:58:08.667Z,14.60
2018-03-11T11:00:44.210Z,14.60
2018-03-11T11:03:22.836Z,14.60
2018-03-11T11:06:19.099Z,14.70
2018-03-11T11:08:49.040Z,14.70
2018-03-11T11:11:17.498Z,14.60
2018-03-11T11:13:45.099Z,14.80
2018-03-11T11:16:12.679Z,14.80
2018-03-11T11:18:40.276Z,14.90
2018-03-11T11:21:14.583Z,15.20
2018-03-11T11:23:42.184Z,15.50
2018-03-11T11:26:09.744Z,15.70
2018-03-11T11:28:37.418Z,15.90
2018-03-11T11:31:05.048Z,16.00
2018-03-11T11:33:32.706Z,16.10
2018-03-11T11:36:00.706Z,16.20
2018-03-11T11:38:28.795Z,16.50
2018-03-11T11:40:56.593Z,16.50
2018-03-11T11:43:32.783Z,16.70
2018-03-11T11:46:00.359Z,17.00
2018-03-11T11:48:27.967Z,17.00
2018-03-11T11:50:55.711Z,17.10
2018-03-11T11:53:23.295Z,17.50
2018-03-11T11:55:50.886Z,18.00
2018-03-11T11:58:18.870Z,18.30
2018-03-11T12:00:46.448Z,18.60
2018-03-11T12:03:14.069Z,19.40
2018-03-11T12:05:41.650Z,20.00
2018-03-11T12:08:10.439Z,19.80
2018-03-11T12:10:38.031Z,19.50
2018-03-11T12:13:06.039Z,19.20
2018-03-11T12:15:33.626Z,19.20
2018-03-11T12:18:01.260Z,19.70
2018-03-11T12:20:29.377Z,20.20
2018-03-11T12:22:57.059Z,20.60
2018-03-11T12:25:24.951Z,20.70
2018-03-11T12:27:52.499Z,20.80
2018-03-11T12:30:20.118Z,20.90
2018-03-11T12:32:47.704Z,21.10
2018-03-11T12:35:15.297Z,21.30
2018-03-11T12:37:42.927Z,21.30
2018-03-11T12:40:10.517Z,21.50
2018-03-11T12:42:38.165Z,21.30
2018-03-11T12:45:05.774Z,21.20
2018-03-11T12:47:33.370Z,21.10
2018-03-11T12:50:00.969Z,21.10
2018-03-11T12:52:29.013Z,21.00
2018-03-11T12:54:56.666Z,21.20
2018-03-11T12:57:24.272Z,21.10
2018-03-11T12:59:52.120Z,21.10
2018-03-11T13:02:19.749Z,21.00
2018-03-11T13:04:47.364Z,21.00
2018-03-11T13:07:14.983Z,20.90
2018-03-11T13:09:42.579Z,20.90
2018-03-11T13:12:11.369Z,20.70
2018-03-11T13:14:39.146Z,20.60
2018-03-11T13:17:07.408Z,20.40
2018-03-11T13:19:35.992Z,20.30
2018-03-11T13:22:04.641Z,20.20
2018-03-11T13:24:40.872Z,19.90
2018-03-11T13:27:17.239Z,19.90
2018-03-11T13:29:51.794Z,19.70
2018-03-11T13:32:31.329Z,19.40
2018-03-11T13:35:00.416Z,19.40
2018-03-11T13:37:28.074Z,19.30
2018-03-11T13:40:07.417Z,19.20
2018-03-11T13:42:35.065Z,19.20
2018-03-11T13:45:14.461Z,18.80
2018-03-11T13:47:42.272Z,18.60
2018-03-11T13:50:09.989Z,18.40
2018-03-11T13:52:49.997Z,18.00
2018-03-11T13:55:17.598Z,18.00
2018-03-11T13:58:23.024Z,17.50
2018-03-11T14:01:02.334Z,17.30
2018-03-11T14:03:37.499Z,17.30
2018-03-11T14:06:09.073Z,17.20
2018-03-11T14:08:36.720Z,17.10
2018-03-11T14:11:04.412Z,17.00
2018-03-11T14:13:34.276Z,16.80
2018-03-11T14:16:02.194Z,16.60
2018-03-11T14:18:29.817Z,16.60
2018-03-11T14:20:57.452Z,16.70
2018-03-11T14:23:25.099Z,16.90
2018-03-11T14:25:52.691Z,17.00
2018-03-11T14:28:20.645Z,17.10
2018-03-11T14:30:48.463Z,17.10
2018-03-11T14:33:16.768Z,16.70
2018-03-11T14:35:44.340Z,16.50
2018-03-11T14:38:15.499Z,16.40
2018-03-11T14:40:44.560Z,16.20
2018-03-11T14:43:12.137Z,16.20
2018-03-11T14:45:41.067Z,16.00
2018-03-11T14:48:08.693Z,15.80
2018-03-11T14:50:36.355Z,15.60
2018-03-11T14:53:03.956Z,15.20
2018-03-11T14:55:31.547Z,15.00
2018-03-11T14:57:59.138Z,14.80
2018-03-11T15:00:27.195Z,14.80
2018-03-11T15:02:58.072Z,14.80
2018-03-11T15:05:25.838Z,14.80
2018-03-11T15:07:57.130Z,14.70
2018-03-11T15:10:24.778Z,14.70
2018-03-11T15:12:52.397Z,14.50
2018-03-11T15:15:20.001Z,14.40
2018-03-11T15:17:47.673Z,14.30
2018-03-11T15:20:16.193Z,14.20
2018-03-11T15:22:44.041Z,14.30
2018-03-11T15:25:15.903Z,14.40
2018-03-11T15:27:43.654Z,14.40
2018-03-11T15:30:11.587Z,14.60
2018-03-11T15:32:39.239Z,14.60
2018-03-11T15:35:06.826Z,14.60
2018-03-11T15:37:34.448Z,14.50
2018-03-11T15:40:12.566Z,14.60
2018-03-11T15:45:24.383Z,14.70
2018-03-11T15:47:52.190Z,14.70
2018-03-11T15:50:20.176Z,14.70
2018-03-11T15:52:56.952Z,14.70
2018-03-11T15:55:25.792Z,14.60
2018-03-11T15:57:53.735Z,14.40
2018-03-11T16:00:21.487Z,14.20
2018-03-11T16:02:49.190Z,14.10
2018-03-11T16:05:17.249Z,14.00
2018-03-11T16:07:45.393Z,13.90
2018-03-11T16:10:13.462Z,14.00
2018-03-11T16:12:45.590Z,14.00
2018-03-11T16:15:17.986Z,14.00
2018-03-11T16:17:47.768Z,14.00
2018-03-11T16:20:17.712Z,14.00
2018-03-11T16:22:45.404Z,14.00
2018-03-11T16:25:13.847Z,14.00
2018-03-11T16:27:41.426Z,14.00
2018-03-11T16:30:13.309Z,14.00
2018-03-11T16:32:40.932Z,13.90
2018-03-11T16:35:12.602Z,13.80
2018-03-11T16:37:40.265Z,13.70
2018-03-11T16:40:07.924Z,13.60
2018-03-11T16:42:35.575Z,13.40
2018-03-11T16:45:04.227Z,13.30
2018-03-11T16:47:31.864Z,13.20
2018-03-11T16:50:06.824Z,13.10
2018-03-11T16:52:34.718Z,13.10
2018-03-11T16:55:02.307Z,13.10
2018-03-11T16:57:29.893Z,13.10
2018-03-11T17:00:11.032Z,13.10
2018-03-11T17:02:39.084Z,13.10
2018-03-11T17:05:06.654Z,13.10
2018-03-11T17:07:34.213Z,13.00
2018-03-11T17:10:01.790Z,13.10
2018-03-11T17:12:29.421Z,13.10
2018-03-11T17:14:56.990Z,13.00
2018-03-11T17:17:26.665Z,13.00
2018-03-11T17:19:54.246Z,12.90
2018-03-11T17:22:21.831Z,12.90
2018-03-11T17:24:49.463Z,12.90
2018-03-11T17:27:17.077Z,12.80
2018-03-11T17:29:46.330Z,12.80
2018-03-11T17:32:14.088Z,12.80
2018-03-11T17:34:41.783Z,12.70
2018-03-11T17:37:09.458Z,12.70
2018-03-11T17:39:37.360Z,12.60
2018-03-11T17:42:05.952Z,12.60
2018-03-11T17:44:33.543Z,12.50
2018-03-11T17:47:01.186Z,12.50
2018-03-11T17:49:28.789Z,12.40
2018-03-11T17:51:56.761Z,12.30
2018-03-11T17:54:24.367Z,12.30
2018-03-11T17:56:51.967Z,12.30
2018-03-11T17:59:19.559Z,12.30
2018-03-11T18:01:47.450Z,12.30
2018-03-11T18:04:15.075Z,12.30
2018-03-11T18:06:42.690Z,12.40
2018-03-11T18:09:10.359Z,12.30
2018-03-11T18:11:37.967Z,12.30
2018-03-11T18:14:05.542Z,12.20
2018-03-11T18:16:33.138Z,12.20
2018-03-11T18:19:00.788Z,12.20
2018-03-11T18:21:28.426Z,12.20
2018-03-11T18:23:56.023Z,12.10
2018-03-11T18:26:23.585Z,12.10
2018-03-11T18:28:51.240Z,12.00
2018-03-11T18:31:18.836Z,11.90
2018-03-11T18:34:00.359Z,11.90
2018-03-11T18:36:27.923Z,11.90
2018-03-11T18:38:55.520Z,11.80
2018-03-11T18:41:23.164Z,11.80
2018-03-11T18:43:50.767Z,11.70
2018-03-11T18:46:19.551Z,11.60
2018-03-11T18:48:47.179Z,11.50
2018-03-11T18:51:14.798Z,11.50
2018-03-11T18:53:42.376Z,11.50
2018-03-11T18:56:10.038Z,11.50
2018-03-11T18:58:37.606Z,11.50
2018-03-11T19:01:05.230Z,11.50
2018-03-11T19:03:32.848Z,11.40
2018-03-11T19:06:00.867Z,11.20
2018-03-11T19:08:28.452Z,11.20
2018-03-11T19:10:56.079Z,11.20
2018-03-11T19:13:23.655Z,11.20
2018-03-11T19:15:51.244Z,11.20
2018-03-11T19:18:18.821Z,11.10
2018-03-11T19:20:46.456Z,11.00
2018-03-11T19:23:14.039Z,10.90
2018-03-11T19:25:41.609Z,10.90
2018-03-11T19:28:09.212Z,10.90
2018-03-11T19:30:36.844Z,10.90
2018-03-11T19:33:04.466Z,10.90
2018-03-11T19:35:32.046Z,10.90
2018-03-11T19:37:59.641Z,10.80
2018-03-11T19:40:27.239Z,10.80
2018-03-11T19:42:54.826Z,10.80
2018-03-11T19:45:22.480Z,10.70
2018-03-11T19:47:50.106Z,10.70
2018-03-11T19:50:18.334Z,10.70
2018-03-11T19:52:45.933Z,10.70
2018-03-11T19:55:13.525Z,10.70
2018-03-11T19:57:41.174Z,10.80
2018-03-11T20:00:09.261Z,10.80
2018-03-11T20:02:36.818Z,10.80
2018-03-11T20:05:04.384Z,10.80
2018-03-11T20:07:32.001Z,10.80
2018-03-11T20:10:00.007Z,10.80
2018-03-11T20:12:27.678Z,10.80
2018-03-11T20:14:55.264Z,10.80
2018-03-11T20:17:22.853Z,10.80
2018-03-11T20:19:50.855Z,10.80
2018-03-11T20:22:23.267Z,10.80
2018-03-11T20:24:50.842Z,10.80
2018-03-11T20:27:18.461Z,10.80
2018-03-11T20:29:46.016Z,10.70
2018-03-11T20:32:13.605Z,10.70
2018-03-11T20:34:41.230Z,10.70
2018-03-11T20:37:08.880Z,10.60
2018-03-11T20:39:36.476Z,10.60
2018-03-11T20:42:05.523Z,10.50
2018-03-11T20:44:33.097Z,10.40
2018-03-11T20:47:00.694Z,10.40
2018-03-11T20:49:28.304Z,10.30
2018-03-11T20:51:55.971Z,10.30
2018-03-11T20:54:23.563Z,10.20
2018-03-11T20:56:51.187Z,10.20
2018-03-11T20:59:18.772Z,10.20
2018-03-11T21:01:46.403Z,10.20
2018-03-11T21:04:13.999Z,10.20
2018-03-11T21:06:41.672Z,10.20
2018-03-11T21:09:09.267Z,10.20
2018-03-11T21:11:36.836Z,10.20
2018-03-11T21:14:09.675Z,10.20
2018-03-11T21:16:37.259Z,10.20
2018-03-11T21:19:05.292Z,10.20
2018-03-11T21:21:32.929Z,10.20
2018-03-11T21:24:00.523Z,10.20
2018-03-11T21:26:28.106Z,10.20
2018-03-11T21:28:55.939Z,10.20
2018-03-11T21:31:23.628Z,10.20
2018-03-11T21:33:51.257Z,10.30
2018-03-11T21:36:18.816Z,10.20
2018-03-11T21:38:46.416Z,10.10
2018-03-11T21:41:13.961Z,10.10
2018-03-11T21:43:41.929Z,10.10
2018-03-11T21:46:09.523Z,10.10
2018-03-11T21:48:37.112Z,10.10
2018-03-11T21:51:04.673Z,10.10
2018-03-11T21:53:32.268Z,10.10
2018-03-11T21:56:00.246Z,10.10
2018-03-11T21:58:27.855Z,10.10
2018-03-11T22:00:55.410Z,10.10
2018-03-11T22:03:22.996Z,10.10
2018-03-11T22:05:51.023Z,10.20
2018-03-11T22:08:18.628Z,10.20
2018-03-11T22:10:46.638Z,10.20
2018-03-11T22:13:14.232Z,10.20
2018-03-11T22:15:41.869Z,10.20
2018-03-11T22:18:09.422Z,10.10
2018-03-11T22:20:37.016Z,10.10
2018-03-11T22:23:04.555Z,10.10
2018-03-11T22:25:32.191Z,10.10
2018-03-11T22:27:59.770Z,10.10
2018-03-11T22:30:27.368Z,10.00
2018-03-11T22:32:54.934Z,10.10
2018-03-11T22:35:22.538Z,10.10
2018-03-11T22:37:50.528Z,10.10
2018-03-11T22:40:18.152Z,10.10
2018-03-11T22:42:45.711Z,10.10
2018-03-11T22:45:13.308Z,10.10
2018-03-11T22:47:40.872Z,10.10
2018-03-11T22:50:08.518Z,10.10
2018-03-11T22:52:36.095Z,10.10
2018-03-11T22:55:03.723Z,10.10
2018-03-11T22:57:31.371Z,10.10
2018-03-11T22:59:58.963Z,10.10
2018-03-11T23:02:26.536Z,10.10
2018-03-11T23:04:54.141Z,10.10
2018-03-11T23:07:21.673Z,10.10
2018-03-11T23:09:49.633Z,10.10
2018-03-11T23:12:17.207Z,10.10
2018-03-11T23:14:44.799Z,10.00
2018-03-11T23:17:12.377Z,10.00
2018-03-11T23:19:40.018Z,9.90
2018-03-11T23:22:07.573Z,9.90
2018-03-11T23:24:35.166Z,9.90
2018-03-11T23:27:02.742Z,9.80
2018-03-11T23:29:30.329Z,9.90
2018-03-11T23:31:57.903Z,9.90
2018-03-11T23:34:25.495Z,9.90
2018-03-11T23:36:53.066Z,9.90
2018-03-11T23:39:20.604Z,9.90
2018-03-11T23:41:48.239Z,9.90
2018-03-11T23:44:15.788Z,9.90
2018-03-11T23:46:43.480Z,9.90
2018-03-11T23:49:11.032Z,9.90
2018-03-11T23:51:38.643Z,9.90
2018-03-11T23:54:06.251Z,9.90
2018-03-11T23:56:33.909Z,9.80
2018-03-11T23:59:01.464Z,9.80
